sensor_id;sensor_type;location;lat;lon;timestamp;P1;durP1;ratioP1;P2;durP2;ratioP2
58089;SDS011;45149;50.976;6.120;2022-07-22T00:01:32;13.93;;;9.70;;
58089;SDS011;45149;50.976;6.120;2022-07-22T00:03:58;16.83;;;10.13;;
58089;SDS011;45149;50.976;6.120;2022-07-22T00:06:23;14.90;;;9.98;;
58089;SDS011;45149;50.976;6.120;2022-07-22T00:08:49;16.27;;;10.63;;
58089;SDS011;45149;50.976;6.120;2022-07-22T00:11:15;15.93;;;10.52;;
58089;SDS011;45149;50.976;6.120;2022-07-22T00:13:40;17.75;;;11.15;;
58089;SDS011;45149;50.976;6.120;2022-07-22T00:16:05;14.73;;;10.57;;
58089;SDS011;45149;50.976;6.120;2022-07-22T00:18:31;16.83;;;10.13;;
58089;SDS011;45149;50.976;6.120;2022-07-22T00:20:57;16.02;;;10.68;;
58089;SDS011;45149;50.976;6.120;2022-07-22T00:23:22;14.38;;;10.27;;
58089;SDS011;45149;50.976;6.120;2022-07-22T00:25:47;15.52;;;9.40;;
58089;SDS011;45149;50.976;6.120;2022-07-22T00:28:13;15.32;;;9.75;;
58089;SDS011;45149;50.976;6.120;2022-07-22T00:30:38;13.57;;;9.40;;
58089;SDS011;45149;50.976;6.120;2022-07-22T00:33:03;17.15;;;9.50;;
58089;SDS011;45149;50.976;6.120;2022-07-22T00:35:29;12.77;;;9.18;;
58089;SDS011;45149;50.976;6.120;2022-07-22T00:37:54;15.95;;;8.63;;
58089;SDS011;45149;50.976;6.120;2022-07-22T00:40:20;13.68;;;8.55;;
58089;SDS011;45149;50.976;6.120;2022-07-22T00:42:45;13.48;;;8.43;;
58089;SDS011;45149;50.976;6.120;2022-07-22T00:45:10;15.65;;;8.90;;
58089;SDS011;45149;50.976;6.120;2022-07-22T00:47:36;16.42;;;8.50;;
58089;SDS011;45149;50.976;6.120;2022-07-22T00:50:02;16.17;;;8.63;;
58089;SDS011;45149;50.976;6.120;2022-07-22T00:52:29;13.77;;;8.88;;
58089;SDS011;45149;50.976;6.120;2022-07-22T00:54:57;14.65;;;8.73;;
58089;SDS011;45149;50.976;6.120;2022-07-22T00:57:23;16.92;;;9.25;;
58089;SDS011;45149;50.976;6.120;2022-07-22T00:59:48;16.98;;;9.73;;
58089;SDS011;45149;50.976;6.120;2022-07-22T01:02:14;16.08;;;10.20;;
58089;SDS011;45149;50.976;6.120;2022-07-22T01:04:40;14.65;;;9.77;;
58089;SDS011;45149;50.976;6.120;2022-07-22T01:07:05;16.38;;;9.93;;
58089;SDS011;45149;50.976;6.120;2022-07-22T01:09:31;18.98;;;9.77;;
58089;SDS011;45149;50.976;6.120;2022-07-22T01:11:56;18.45;;;9.88;;
58089;SDS011;45149;50.976;6.120;2022-07-22T01:14:21;15.85;;;9.70;;
58089;SDS011;45149;50.976;6.120;2022-07-22T01:16:47;16.15;;;10.20;;
58089;SDS011;45149;50.976;6.120;2022-07-22T01:19:12;18.27;;;10.45;;
58089;SDS011;45149;50.976;6.120;2022-07-22T01:21:37;14.63;;;10.05;;
58089;SDS011;45149;50.976;6.120;2022-07-22T01:24:03;14.43;;;10.00;;
58089;SDS011;45149;50.976;6.120;2022-07-22T01:26:29;18.90;;;9.95;;
58089;SDS011;45149;50.976;6.120;2022-07-22T01:28:55;18.20;;;10.48;;
58089;SDS011;45149;50.976;6.120;2022-07-22T01:31:20;16.08;;;9.27;;
58089;SDS011;45149;50.976;6.120;2022-07-22T01:33:46;18.63;;;10.52;;
58089;SDS011;45149;50.976;6.120;2022-07-22T01:36:11;19.00;;;10.68;;
58089;SDS011;45149;50.976;6.120;2022-07-22T01:38:36;15.48;;;10.02;;
58089;SDS011;45149;50.976;6.120;2022-07-22T01:41:02;17.38;;;10.80;;
58089;SDS011;45149;50.976;6.120;2022-07-22T01:43:27;16.38;;;10.45;;
58089;SDS011;45149;50.976;6.120;2022-07-22T01:45:54;16.65;;;11.30;;
58089;SDS011;45149;50.976;6.120;2022-07-22T01:48:19;14.52;;;10.88;;
58089;SDS011;45149;50.976;6.120;2022-07-22T01:50:45;16.38;;;11.07;;
58089;SDS011;45149;50.976;6.120;2022-07-22T01:53:11;19.00;;;11.75;;
58089;SDS011;45149;50.976;6.120;2022-07-22T01:55:37;14.48;;;10.27;;
58089;SDS011;45149;50.976;6.120;2022-07-22T01:58:03;13.95;;;9.90;;
58089;SDS011;45149;50.976;6.120;2022-07-22T02:00:29;13.05;;;9.63;;
58089;SDS011;45149;50.976;6.120;2022-07-22T02:02:56;14.98;;;10.23;;
58089;SDS011;45149;50.976;6.120;2022-07-22T02:05:21;18.05;;;10.75;;
58089;SDS011;45149;50.976;6.120;2022-07-22T02:07:47;15.15;;;10.63;;
58089;SDS011;45149;50.976;6.120;2022-07-22T02:10:12;15.75;;;10.30;;
58089;SDS011;45149;50.976;6.120;2022-07-22T02:12:38;16.85;;;11.00;;
58089;SDS011;45149;50.976;6.120;2022-07-22T02:15:04;11.63;;;9.50;;
58089;SDS011;45149;50.976;6.120;2022-07-22T02:17:31;14.68;;;9.70;;
58089;SDS011;45149;50.976;6.120;2022-07-22T02:19:58;16.52;;;9.73;;
58089;SDS011;45149;50.976;6.120;2022-07-22T02:22:23;15.18;;;10.00;;
58089;SDS011;45149;50.976;6.120;2022-07-22T02:24:48;13.57;;;9.32;;
58089;SDS011;45149;50.976;6.120;2022-07-22T02:27:14;14.27;;;10.00;;
58089;SDS011;45149;50.976;6.120;2022-07-22T02:29:39;14.88;;;9.63;;
58089;SDS011;45149;50.976;6.120;2022-07-22T02:32:05;14.35;;;9.18;;
58089;SDS011;45149;50.976;6.120;2022-07-22T02:34:30;14.68;;;9.45;;
58089;SDS011;45149;50.976;6.120;2022-07-22T02:36:56;13.73;;;9.75;;
58089;SDS011;45149;50.976;6.120;2022-07-22T02:39:21;15.73;;;9.45;;
58089;SDS011;45149;50.976;6.120;2022-07-22T02:41:47;13.18;;;9.80;;
58089;SDS011;45149;50.976;6.120;2022-07-22T02:44:12;14.88;;;9.45;;
58089;SDS011;45149;50.976;6.120;2022-07-22T02:46:38;15.55;;;10.48;;
58089;SDS011;45149;50.976;6.120;2022-07-22T02:49:03;15.13;;;9.80;;
58089;SDS011;45149;50.976;6.120;2022-07-22T02:51:29;13.00;;;9.63;;
58089;SDS011;45149;50.976;6.120;2022-07-22T02:53:55;16.50;;;9.88;;
58089;SDS011;45149;50.976;6.120;2022-07-22T02:56:20;14.93;;;10.10;;
58089;SDS011;45149;50.976;6.120;2022-07-22T02:58:45;15.38;;;10.60;;
58089;SDS011;45149;50.976;6.120;2022-07-22T03:01:17;13.60;;;10.15;;
58089;SDS011;45149;50.976;6.120;2022-07-22T03:03:43;16.13;;;10.25;;
58089;SDS011;45149;50.976;6.120;2022-07-22T03:06:09;13.63;;;10.23;;
58089;SDS011;45149;50.976;6.120;2022-07-22T03:08:34;15.50;;;10.30;;
58089;SDS011;45149;50.976;6.120;2022-07-22T03:10:59;16.33;;;10.38;;
58089;SDS011;45149;50.976;6.120;2022-07-22T03:13:25;13.18;;;9.93;;
58089;SDS011;45149;50.976;6.120;2022-07-22T03:15:50;15.38;;;10.15;;
58089;SDS011;45149;50.976;6.120;2022-07-22T03:18:16;17.45;;;11.00;;
58089;SDS011;45149;50.976;6.120;2022-07-22T03:20:41;13.32;;;9.82;;
58089;SDS011;45149;50.976;6.120;2022-07-22T03:23:06;15.07;;;10.55;;
58089;SDS011;45149;50.976;6.120;2022-07-22T03:25:32;15.57;;;11.07;;
58089;SDS011;45149;50.976;6.120;2022-07-22T03:27:57;12.82;;;10.20;;
58089;SDS011;45149;50.976;6.120;2022-07-22T03:30:23;14.52;;;10.00;;
58089;SDS011;45149;50.976;6.120;2022-07-22T03:32:48;13.05;;;10.18;;
58089;SDS011;45149;50.976;6.120;2022-07-22T03:35:14;15.15;;;10.35;;
58089;SDS011;45149;50.976;6.120;2022-07-22T03:37:40;13.40;;;9.85;;
58089;SDS011;45149;50.976;6.120;2022-07-22T03:40:05;16.25;;;10.00;;
58089;SDS011;45149;50.976;6.120;2022-07-22T03:42:31;14.85;;;10.27;;
58089;SDS011;45149;50.976;6.120;2022-07-22T03:44:57;13.07;;;10.38;;
58089;SDS011;45149;50.976;6.120;2022-07-22T03:47:23;15.50;;;11.05;;
58089;SDS011;45149;50.976;6.120;2022-07-22T03:49:49;14.75;;;10.85;;
58089;SDS011;45149;50.976;6.120;2022-07-22T03:52:15;14.07;;;10.50;;
58089;SDS011;45149;50.976;6.120;2022-07-22T03:54:41;12.85;;;10.27;;
58089;SDS011;45149;50.976;6.120;2022-07-22T03:57:06;14.50;;;9.98;;
58089;SDS011;45149;50.976;6.120;2022-07-22T03:59:32;14.80;;;10.30;;
58089;SDS011;45149;50.976;6.120;2022-07-22T04:01:58;13.10;;;9.85;;
58089;SDS011;45149;50.976;6.120;2022-07-22T04:04:23;15.35;;;9.70;;
58089;SDS011;45149;50.976;6.120;2022-07-22T04:06:48;10.75;;;9.32;;
58089;SDS011;45149;50.976;6.120;2022-07-22T04:09:16;12.55;;;9.40;;
58089;SDS011;45149;50.976;6.120;2022-07-22T04:11:41;14.35;;;9.40;;
58089;SDS011;45149;50.976;6.120;2022-07-22T04:14:07;12.57;;;9.80;;
58089;SDS011;45149;50.976;6.120;2022-07-22T04:16:32;16.60;;;9.70;;
58089;SDS011;45149;50.976;6.120;2022-07-22T04:18:57;13.80;;;9.75;;
58089;SDS011;45149;50.976;6.120;2022-07-22T04:21:23;16.10;;;10.45;;
58089;SDS011;45149;50.976;6.120;2022-07-22T04:23:48;14.00;;;9.40;;
58089;SDS011;45149;50.976;6.120;2022-07-22T04:26:14;14.50;;;9.65;;
58089;SDS011;45149;50.976;6.120;2022-07-22T04:28:39;12.63;;;9.63;;
58089;SDS011;45149;50.976;6.120;2022-07-22T04:31:05;12.35;;;9.55;;
58089;SDS011;45149;50.976;6.120;2022-07-22T04:33:30;15.50;;;9.20;;
58089;SDS011;45149;50.976;6.120;2022-07-22T04:35:55;12.52;;;9.57;;
58089;SDS011;45149;50.976;6.120;2022-07-22T04:38:22;13.90;;;9.65;;
58089;SDS011;45149;50.976;6.120;2022-07-22T04:40:47;15.13;;;10.13;;
58089;SDS011;45149;50.976;6.120;2022-07-22T04:43:12;14.38;;;9.70;;
58089;SDS011;45149;50.976;6.120;2022-07-22T04:45:38;13.25;;;10.35;;
58089;SDS011;45149;50.976;6.120;2022-07-22T04:48:03;14.77;;;10.07;;
58089;SDS011;45149;50.976;6.120;2022-07-22T04:50:29;14.02;;;10.32;;
58089;SDS011;45149;50.976;6.120;2022-07-22T04:52:54;13.27;;;9.65;;
58089;SDS011;45149;50.976;6.120;2022-07-22T04:55:19;13.45;;;9.40;;
58089;SDS011;45149;50.976;6.120;2022-07-22T04:57:45;12.30;;;9.40;;
58089;SDS011;45149;50.976;6.120;2022-07-22T05:00:11;14.15;;;10.32;;
58089;SDS011;45149;50.976;6.120;2022-07-22T05:02:36;14.50;;;10.57;;
58089;SDS011;45149;50.976;6.120;2022-07-22T05:05:02;16.40;;;10.52;;
58089;SDS011;45149;50.976;6.120;2022-07-22T05:07:27;17.10;;;10.50;;
58089;SDS011;45149;50.976;6.120;2022-07-22T05:09:52;15.20;;;10.32;;
58089;SDS011;45149;50.976;6.120;2022-07-22T05:12:18;15.77;;;10.35;;
58089;SDS011;45149;50.976;6.120;2022-07-22T05:14:43;13.95;;;9.95;;
58089;SDS011;45149;50.976;6.120;2022-07-22T05:17:09;15.23;;;10.13;;
58089;SDS011;45149;50.976;6.120;2022-07-22T05:19:39;14.00;;;10.05;;
58089;SDS011;45149;50.976;6.120;2022-07-22T05:22:05;19.15;;;10.20;;
58089;SDS011;45149;50.976;6.120;2022-07-22T05:24:31;16.48;;;8.73;;
58089;SDS011;45149;50.976;6.120;2022-07-22T05:26:57;15.02;;;9.70;;
58089;SDS011;45149;50.976;6.120;2022-07-22T05:29:22;13.23;;;9.07;;
58089;SDS011;45149;50.976;6.120;2022-07-22T05:31:47;13.77;;;8.70;;
58089;SDS011;45149;50.976;6.120;2022-07-22T05:34:13;15.85;;;9.27;;
58089;SDS011;45149;50.976;6.120;2022-07-22T05:36:38;14.02;;;9.38;;
58089;SDS011;45149;50.976;6.120;2022-07-22T05:39:04;13.98;;;9.25;;
58089;SDS011;45149;50.976;6.120;2022-07-22T05:41:29;14.50;;;8.88;;
58089;SDS011;45149;50.976;6.120;2022-07-22T05:43:55;15.80;;;9.60;;
58089;SDS011;45149;50.976;6.120;2022-07-22T05:46:20;13.05;;;8.27;;
58089;SDS011;45149;50.976;6.120;2022-07-22T05:48:45;13.38;;;9.40;;
58089;SDS011;45149;50.976;6.120;2022-07-22T05:51:11;13.45;;;9.23;;
58089;SDS011;45149;50.976;6.120;2022-07-22T05:53:37;16.73;;;9.65;;
58089;SDS011;45149;50.976;6.120;2022-07-22T05:56:03;15.02;;;10.05;;
58089;SDS011;45149;50.976;6.120;2022-07-22T05:58:28;13.38;;;9.55;;
58089;SDS011;45149;50.976;6.120;2022-07-22T06:00:54;12.82;;;9.55;;
58089;SDS011;45149;50.976;6.120;2022-07-22T06:03:20;15.77;;;10.18;;
58089;SDS011;45149;50.976;6.120;2022-07-22T06:05:46;13.93;;;9.50;;
58089;SDS011;45149;50.976;6.120;2022-07-22T06:08:11;12.07;;;9.25;;
58089;SDS011;45149;50.976;6.120;2022-07-22T06:10:36;14.20;;;9.32;;
58089;SDS011;45149;50.976;6.120;2022-07-22T06:13:02;11.68;;;9.68;;
58089;SDS011;45149;50.976;6.120;2022-07-22T06:15:27;14.93;;;10.18;;
58089;SDS011;45149;50.976;6.120;2022-07-22T06:17:53;14.90;;;10.32;;
58089;SDS011;45149;50.976;6.120;2022-07-22T06:20:18;12.70;;;9.43;;
58089;SDS011;45149;50.976;6.120;2022-07-22T06:22:43;13.65;;;9.85;;
58089;SDS011;45149;50.976;6.120;2022-07-22T06:25:09;13.45;;;10.63;;
58089;SDS011;45149;50.976;6.120;2022-07-22T06:27:35;13.98;;;9.90;;
58089;SDS011;45149;50.976;6.120;2022-07-22T06:30:00;13.25;;;9.90;;
58089;SDS011;45149;50.976;6.120;2022-07-22T06:32:26;14.45;;;8.90;;
58089;SDS011;45149;50.976;6.120;2022-07-22T06:34:51;12.43;;;9.35;;
58089;SDS011;45149;50.976;6.120;2022-07-22T06:37:17;12.43;;;9.35;;
58089;SDS011;45149;50.976;6.120;2022-07-22T06:39:42;15.45;;;9.77;;
58089;SDS011;45149;50.976;6.120;2022-07-22T06:42:07;13.65;;;9.45;;
58089;SDS011;45149;50.976;6.120;2022-07-22T06:44:33;12.23;;;9.88;;
58089;SDS011;45149;50.976;6.120;2022-07-22T06:46:58;13.30;;;9.63;;
58089;SDS011;45149;50.976;6.120;2022-07-22T06:49:23;13.00;;;9.18;;
58089;SDS011;45149;50.976;6.120;2022-07-22T06:51:49;12.50;;;9.18;;
58089;SDS011;45149;50.976;6.120;2022-07-22T06:54:14;11.27;;;8.55;;
58089;SDS011;45149;50.976;6.120;2022-07-22T06:56:39;11.98;;;8.32;;
58089;SDS011;45149;50.976;6.120;2022-07-22T06:59:05;11.15;;;8.60;;
58089;SDS011;45149;50.976;6.120;2022-07-22T07:01:30;11.23;;;8.82;;
58089;SDS011;45149;50.976;6.120;2022-07-22T07:03:56;11.70;;;8.88;;
58089;SDS011;45149;50.976;6.120;2022-07-22T07:06:21;13.50;;;9.43;;
58089;SDS011;45149;50.976;6.120;2022-07-22T07:08:47;12.35;;;9.45;;
58089;SDS011;45149;50.976;6.120;2022-07-22T07:11:12;13.88;;;8.95;;
58089;SDS011;45149;50.976;6.120;2022-07-22T07:13:37;9.73;;;8.00;;
58089;SDS011;45149;50.976;6.120;2022-07-22T07:16:03;12.27;;;8.30;;
58089;SDS011;45149;50.976;6.120;2022-07-22T07:18:29;11.23;;;8.10;;
58089;SDS011;45149;50.976;6.120;2022-07-22T07:20:55;7.72;;;6.47;;
58089;SDS011;45149;50.976;6.120;2022-07-22T07:23:20;9.73;;;8.52;;
58089;SDS011;45149;50.976;6.120;2022-07-22T07:25:47;11.25;;;8.23;;
58089;SDS011;45149;50.976;6.120;2022-07-22T07:28:12;11.45;;;8.23;;
58089;SDS011;45149;50.976;6.120;2022-07-22T07:30:37;9.65;;;7.22;;
58089;SDS011;45149;50.976;6.120;2022-07-22T07:33:03;8.80;;;5.82;;
58089;SDS011;45149;50.976;6.120;2022-07-22T07:35:28;9.75;;;5.90;;
58089;SDS011;45149;50.976;6.120;2022-07-22T07:37:54;8.48;;;6.00;;
58089;SDS011;45149;50.976;6.120;2022-07-22T07:40:19;7.45;;;5.28;;
58089;SDS011;45149;50.976;6.120;2022-07-22T07:42:45;10.65;;;5.68;;
58089;SDS011;45149;50.976;6.120;2022-07-22T07:45:11;8.60;;;5.18;;
58089;SDS011;45149;50.976;6.120;2022-07-22T07:47:36;10.30;;;5.30;;
58089;SDS011;45149;50.976;6.120;2022-07-22T07:50:03;5.97;;;5.13;;
58089;SDS011;45149;50.976;6.120;2022-07-22T07:52:30;8.65;;;4.90;;
58089;SDS011;45149;50.976;6.120;2022-07-22T07:54:55;9.07;;;5.30;;
58089;SDS011;45149;50.976;6.120;2022-07-22T07:57:21;9.25;;;4.97;;
58089;SDS011;45149;50.976;6.120;2022-07-22T07:59:47;8.82;;;4.95;;
58089;SDS011;45149;50.976;6.120;2022-07-22T08:02:12;9.07;;;5.22;;
58089;SDS011;45149;50.976;6.120;2022-07-22T08:04:38;5.97;;;4.53;;
58089;SDS011;45149;50.976;6.120;2022-07-22T08:07:04;8.35;;;4.95;;
58089;SDS011;45149;50.976;6.120;2022-07-22T08:09:31;9.65;;;5.00;;
58089;SDS011;45149;50.976;6.120;2022-07-22T08:11:56;6.63;;;4.18;;
58089;SDS011;45149;50.976;6.120;2022-07-22T08:14:21;8.02;;;4.80;;
58089;SDS011;45149;50.976;6.120;2022-07-22T08:16:49;7.68;;;4.75;;
58089;SDS011;45149;50.976;6.120;2022-07-22T08:19:14;6.32;;;5.18;;
58089;SDS011;45149;50.976;6.120;2022-07-22T08:21:39;7.00;;;5.55;;
58089;SDS011;45149;50.976;6.120;2022-07-22T08:24:06;8.38;;;4.80;;
58089;SDS011;45149;50.976;6.120;2022-07-22T08:26:34;6.20;;;4.90;;
58089;SDS011;45149;50.976;6.120;2022-07-22T08:28:59;7.50;;;4.43;;
58089;SDS011;45149;50.976;6.120;2022-07-22T08:31:26;5.30;;;4.78;;
58089;SDS011;45149;50.976;6.120;2022-07-22T08:33:52;6.45;;;4.38;;
58089;SDS011;45149;50.976;6.120;2022-07-22T08:36:17;6.32;;;4.50;;
58089;SDS011;45149;50.976;6.120;2022-07-22T08:38:43;7.53;;;4.28;;
58089;SDS011;45149;50.976;6.120;2022-07-22T08:41:08;6.85;;;4.43;;
58089;SDS011;45149;50.976;6.120;2022-07-22T08:43:34;7.38;;;4.38;;
58089;SDS011;45149;50.976;6.120;2022-07-22T08:46:04;5.90;;;4.35;;
58089;SDS011;45149;50.976;6.120;2022-07-22T08:48:30;5.97;;;4.47;;
58089;SDS011;45149;50.976;6.120;2022-07-22T08:50:55;5.70;;;3.70;;
58089;SDS011;45149;50.976;6.120;2022-07-22T08:53:20;7.55;;;4.15;;
58089;SDS011;45149;50.976;6.120;2022-07-22T08:55:47;5.25;;;3.70;;
58089;SDS011;45149;50.976;6.120;2022-07-22T08:58:13;5.07;;;3.65;;
58089;SDS011;45149;50.976;6.120;2022-07-22T09:00:40;5.93;;;3.47;;
58089;SDS011;45149;50.976;6.120;2022-07-22T09:03:22;4.82;;;3.72;;
58089;SDS011;45149;50.976;6.120;2022-07-22T09:05:50;4.85;;;3.80;;
58089;SDS011;45149;50.976;6.120;2022-07-22T09:08:16;4.88;;;3.88;;
58089;SDS011;45149;50.976;6.120;2022-07-22T09:10:42;5.93;;;3.25;;
58089;SDS011;45149;50.976;6.120;2022-07-22T09:13:08;5.05;;;3.80;;
58089;SDS011;45149;50.976;6.120;2022-07-22T09:15:35;5.38;;;4.10;;
58089;SDS011;45149;50.976;6.120;2022-07-22T09:18:03;6.38;;;3.58;;
58089;SDS011;45149;50.976;6.120;2022-07-22T09:20:29;5.13;;;3.70;;
58089;SDS011;45149;50.976;6.120;2022-07-22T09:22:55;6.00;;;3.70;;
58089;SDS011;45149;50.976;6.120;2022-07-22T09:27:52;6.85;;;4.00;;
58089;SDS011;45149;50.976;6.120;2022-07-22T09:30:20;5.63;;;3.95;;
58089;SDS011;45149;50.976;6.120;2022-07-22T09:32:50;4.28;;;3.88;;
58089;SDS011;45149;50.976;6.120;2022-07-22T09:35:17;5.57;;;4.35;;
58089;SDS011;45149;50.976;6.120;2022-07-22T09:37:47;5.20;;;3.75;;
58089;SDS011;45149;50.976;6.120;2022-07-22T09:40:15;5.03;;;4.28;;
58089;SDS011;45149;50.976;6.120;2022-07-22T09:42:45;5.15;;;4.18;;
58089;SDS011;45149;50.976;6.120;2022-07-22T09:45:12;6.35;;;4.10;;
58089;SDS011;45149;50.976;6.120;2022-07-22T09:47:40;6.32;;;3.58;;
58089;SDS011;45149;50.976;6.120;2022-07-22T09:50:17;6.50;;;4.20;;
58089;SDS011;45149;50.976;6.120;2022-07-22T09:52:48;5.97;;;3.95;;
58089;SDS011;45149;50.976;6.120;2022-07-22T09:55:16;5.97;;;5.32;;
58089;SDS011;45149;50.976;6.120;2022-07-22T09:57:43;4.35;;;3.63;;
58089;SDS011;45149;50.976;6.120;2022-07-22T10:00:09;4.68;;;3.80;;
58089;SDS011;45149;50.976;6.120;2022-07-22T10:02:40;5.65;;;4.25;;
58089;SDS011;45149;50.976;6.120;2022-07-22T10:05:14;4.57;;;4.05;;
58089;SDS011;45149;50.976;6.120;2022-07-22T10:07:41;5.95;;;4.70;;
58089;SDS011;45149;50.976;6.120;2022-07-22T10:10:08;5.32;;;4.18;;
58089;SDS011;45149;50.976;6.120;2022-07-22T10:12:35;5.63;;;4.38;;
58089;SDS011;45149;50.976;6.120;2022-07-22T10:15:01;5.28;;;4.78;;
58089;SDS011;45149;50.976;6.120;2022-07-22T10:17:28;6.00;;;4.53;;
58089;SDS011;45149;50.976;6.120;2022-07-22T10:19:54;5.85;;;3.80;;
58089;SDS011;45149;50.976;6.120;2022-07-22T10:25:03;4.88;;;3.90;;
58089;SDS011;45149;50.976;6.120;2022-07-22T10:30:31;4.90;;;3.50;;
58089;SDS011;45149;50.976;6.120;2022-07-22T10:33:11;4.38;;;3.00;;
58089;SDS011;45149;50.976;6.120;2022-07-22T10:35:37;4.13;;;3.15;;
58089;SDS011;45149;50.976;6.120;2022-07-22T10:38:10;8.60;;;3.40;;
58089;SDS011;45149;50.976;6.120;2022-07-22T10:43:26;4.50;;;2.60;;
58089;SDS011;45149;50.976;6.120;2022-07-22T10:45:55;5.90;;;2.97;;
58089;SDS011;45149;50.976;6.120;2022-07-22T10:51:04;4.78;;;2.10;;
58089;SDS011;45149;50.976;6.120;2022-07-22T10:54:00;3.85;;;2.80;;
58089;SDS011;45149;50.976;6.120;2022-07-22T11:01:42;3.45;;;2.70;;
58089;SDS011;45149;50.976;6.120;2022-07-22T11:04:13;4.13;;;2.60;;
58089;SDS011;45149;50.976;6.120;2022-07-22T11:06:44;3.70;;;2.50;;
58089;SDS011;45149;50.976;6.120;2022-07-22T11:09:12;3.63;;;2.80;;
58089;SDS011;45149;50.976;6.120;2022-07-22T11:11:45;3.47;;;3.03;;
58089;SDS011;45149;50.976;6.120;2022-07-22T11:14:28;3.25;;;2.95;;
58089;SDS011;45149;50.976;6.120;2022-07-22T11:17:16;4.53;;;3.53;;
58089;SDS011;45149;50.976;6.120;2022-07-22T11:19:41;4.30;;;3.65;;
58089;SDS011;45149;50.976;6.120;2022-07-22T11:22:07;4.28;;;3.88;;
58089;SDS011;45149;50.976;6.120;2022-07-22T11:24:34;4.80;;;3.58;;
58089;SDS011;45149;50.976;6.120;2022-07-22T11:27:00;3.90;;;3.50;;
58089;SDS011;45149;50.976;6.120;2022-07-22T11:31:54;6.43;;;4.00;;
58089;SDS011;45149;50.976;6.120;2022-07-22T11:34:21;5.57;;;3.80;;
58089;SDS011;45149;50.976;6.120;2022-07-22T11:36:48;5.82;;;3.67;;
58089;SDS011;45149;50.976;6.120;2022-07-22T11:39:17;4.95;;;3.78;;
58089;SDS011;45149;50.976;6.120;2022-07-22T11:41:45;3.67;;;3.03;;
58089;SDS011;45149;50.976;6.120;2022-07-22T11:44:18;4.30;;;3.90;;
58089;SDS011;45149;50.976;6.120;2022-07-22T11:46:45;4.22;;;2.88;;
58089;SDS011;45149;50.976;6.120;2022-07-22T11:49:12;4.00;;;2.67;;
58089;SDS011;45149;50.976;6.120;2022-07-22T11:51:42;3.58;;;2.75;;
58089;SDS011;45149;50.976;6.120;2022-07-22T11:54:07;3.78;;;3.25;;
58089;SDS011;45149;50.976;6.120;2022-07-22T11:56:33;4.35;;;3.35;;
58089;SDS011;45149;50.976;6.120;2022-07-22T11:58:59;7.43;;;3.42;;
58089;SDS011;45149;50.976;6.120;2022-07-22T12:01:29;4.03;;;3.20;;
58089;SDS011;45149;50.976;6.120;2022-07-22T12:03:56;4.03;;;2.92;;
58089;SDS011;45149;50.976;6.120;2022-07-22T12:06:24;3.63;;;2.80;;
58089;SDS011;45149;50.976;6.120;2022-07-22T12:08:52;3.08;;;2.40;;
58089;SDS011;45149;50.976;6.120;2022-07-22T12:11:20;4.10;;;2.70;;
58089;SDS011;45149;50.976;6.120;2022-07-22T12:13:49;3.67;;;2.33;;
58089;SDS011;45149;50.976;6.120;2022-07-22T12:16:25;4.32;;;2.30;;
58089;SDS011;45149;50.976;6.120;2022-07-22T12:18:59;4.30;;;3.58;;
58089;SDS011;45149;50.976;6.120;2022-07-22T12:22:28;3.45;;;3.15;;
58089;SDS011;45149;50.976;6.120;2022-07-22T12:24:27;2.58;;;2.30;;
58089;SDS011;45149;50.976;6.120;2022-07-22T12:27:05;3.90;;;2.42;;
58089;SDS011;45149;50.976;6.120;2022-07-22T12:32:01;3.65;;;3.10;;
58089;SDS011;45149;50.976;6.120;2022-07-22T12:34:30;4.03;;;3.45;;
58089;SDS011;45149;50.976;6.120;2022-07-22T12:36:59;10.27;;;4.10;;
58089;SDS011;45149;50.976;6.120;2022-07-22T12:39:27;5.07;;;3.13;;
58089;SDS011;45149;50.976;6.120;2022-07-22T12:41:53;4.20;;;3.67;;
58089;SDS011;45149;50.976;6.120;2022-07-22T12:44:20;6.03;;;3.85;;
58089;SDS011;45149;50.976;6.120;2022-07-22T12:46:49;6.10;;;3.80;;
58089;SDS011;45149;50.976;6.120;2022-07-22T12:49:18;4.70;;;4.00;;
58089;SDS011;45149;50.976;6.120;2022-07-22T12:54:33;3.97;;;3.47;;
58089;SDS011;45149;50.976;6.120;2022-07-22T12:57:00;4.20;;;3.60;;
58089;SDS011;45149;50.976;6.120;2022-07-22T12:59:25;6.97;;;3.88;;
58089;SDS011;45149;50.976;6.120;2022-07-22T13:01:51;7.15;;;3.80;;
58089;SDS011;45149;50.976;6.120;2022-07-22T13:04:16;3.50;;;3.10;;
58089;SDS011;45149;50.976;6.120;2022-07-22T13:06:41;5.22;;;2.83;;
58089;SDS011;45149;50.976;6.120;2022-07-22T13:09:07;5.47;;;4.03;;
58089;SDS011;45149;50.976;6.120;2022-07-22T13:11:33;5.95;;;3.72;;
58089;SDS011;45149;50.976;6.120;2022-07-22T13:16:29;6.57;;;3.53;;
58089;SDS011;45149;50.976;6.120;2022-07-22T13:18:55;6.00;;;3.70;;
58089;SDS011;45149;50.976;6.120;2022-07-22T13:21:20;4.03;;;3.42;;
58089;SDS011;45149;50.976;6.120;2022-07-22T13:23:45;4.20;;;3.63;;
58089;SDS011;45149;50.976;6.120;2022-07-22T13:26:11;3.70;;;3.25;;
58089;SDS011;45149;50.976;6.120;2022-07-22T13:28:36;5.65;;;2.80;;
58089;SDS011;45149;50.976;6.120;2022-07-22T13:31:01;4.88;;;2.67;;
58089;SDS011;45149;50.976;6.120;2022-07-22T13:33:27;6.03;;;2.90;;
58089;SDS011;45149;50.976;6.120;2022-07-22T13:35:52;5.47;;;3.72;;
58089;SDS011;45149;50.976;6.120;2022-07-22T13:38:17;4.82;;;3.05;;
58089;SDS011;45149;50.976;6.120;2022-07-22T13:40:43;6.55;;;3.50;;
58089;SDS011;45149;50.976;6.120;2022-07-22T13:43:16;4.25;;;3.13;;
58089;SDS011;45149;50.976;6.120;2022-07-22T13:45:43;6.18;;;3.70;;
58089;SDS011;45149;50.976;6.120;2022-07-22T13:48:08;4.15;;;3.03;;
58089;SDS011;45149;50.976;6.120;2022-07-22T13:50:34;6.85;;;2.75;;
58089;SDS011;45149;50.976;6.120;2022-07-22T13:52:59;7.07;;;5.07;;
58089;SDS011;45149;50.976;6.120;2022-07-22T13:55:24;6.65;;;5.38;;
58089;SDS011;45149;50.976;6.120;2022-07-22T13:57:50;5.43;;;3.95;;
58089;SDS011;45149;50.976;6.120;2022-07-22T14:00:15;3.53;;;3.20;;
58089;SDS011;45149;50.976;6.120;2022-07-22T14:02:42;4.95;;;3.30;;
58089;SDS011;45149;50.976;6.120;2022-07-22T14:05:09;6.45;;;4.43;;
58089;SDS011;45149;50.976;6.120;2022-07-22T14:07:34;5.95;;;3.67;;
58089;SDS011;45149;50.976;6.120;2022-07-22T14:09:59;5.50;;;3.95;;
58089;SDS011;45149;50.976;6.120;2022-07-22T14:12:25;6.35;;;3.97;;
58089;SDS011;45149;50.976;6.120;2022-07-22T14:14:50;5.47;;;3.58;;
58089;SDS011;45149;50.976;6.120;2022-07-22T14:17:15;6.43;;;3.33;;
58089;SDS011;45149;50.976;6.120;2022-07-22T14:19:41;3.50;;;3.10;;
58089;SDS011;45149;50.976;6.120;2022-07-22T14:22:06;5.78;;;5.10;;
58089;SDS011;45149;50.976;6.120;2022-07-22T14:24:31;3.83;;;3.05;;
58089;SDS011;45149;50.976;6.120;2022-07-22T14:26:57;5.05;;;3.30;;
58089;SDS011;45149;50.976;6.120;2022-07-22T14:29:23;5.35;;;3.63;;
58089;SDS011;45149;50.976;6.120;2022-07-22T14:31:49;4.68;;;3.50;;
58089;SDS011;45149;50.976;6.120;2022-07-22T14:34:14;6.97;;;3.65;;
58089;SDS011;45149;50.976;6.120;2022-07-22T14:36:40;6.18;;;3.40;;
58089;SDS011;45149;50.976;6.120;2022-07-22T14:39:05;4.38;;;3.42;;
58089;SDS011;45149;50.976;6.120;2022-07-22T14:41:31;3.97;;;3.30;;
58089;SDS011;45149;50.976;6.120;2022-07-22T14:43:56;6.45;;;3.22;;
58089;SDS011;45149;50.976;6.120;2022-07-22T14:46:21;3.83;;;3.13;;
58089;SDS011;45149;50.976;6.120;2022-07-22T14:48:47;6.03;;;3.53;;
58089;SDS011;45149;50.976;6.120;2022-07-22T14:51:17;6.70;;;3.45;;
58089;SDS011;45149;50.976;6.120;2022-07-22T14:53:43;3.92;;;3.10;;
58089;SDS011;45149;50.976;6.120;2022-07-22T14:56:08;5.22;;;3.63;;
58089;SDS011;45149;50.976;6.120;2022-07-22T14:58:33;5.72;;;4.00;;
58089;SDS011;45149;50.976;6.120;2022-07-22T15:00:59;5.57;;;4.10;;
58089;SDS011;45149;50.976;6.120;2022-07-22T15:03:24;5.20;;;4.13;;